Time;durP1;ratioP1;P1;durP2;ratioP2;P2;SDS_P1;SDS_P2;PMS_P1;PMS_P2;Temp;Humidity;BMP_temperature;BMP_pressure;BME280_temperature;BME280_humidity;BME280_pressure;Samples;Min_cycle;Max_cycle;Signal;HPM_P1;HPM_P2
2022/05/07 00:00:30;;;;;;;21.50;14.57;;;;;;;;;;5053414;28;20444;-75
2022/05/07 00:02:56;;;;;;;15.47;13.83;;;;;;;;;;5053048;28;20404;-75
2022/05/07 00:05:22;;;;;;;19.10;13.57;;;;;;;;;;5053034;28;20530;-74
2022/05/07 00:07:49;;;;;;;18.23;15.87;;;;;;;;;;5053300;28;20416;-75
2022/05/07 00:10:15;;;;;;;15.73;12.87;;;;;;;;;;5053157;28;20747;-75
2022/05/07 00:12:41;;;;;;;18.10;14.37;;;;;;;;;;5052806;28;20516;-76
2022/05/07 00:15:08;;;;;;;17.63;14.40;;;;;;;;;;5052674;28;20424;-76
2022/05/07 00:20:19;;;;;;;17.27;14.53;;;;;;;;;;5053109;28;20466;-76
2022/05/07 00:22:45;;;;;;;20.70;14.20;;;;;;;;;;5052924;28;20409;-77
2022/05/07 00:25:11;;;;;;;16.93;13.00;;;;;;;;;;5052591;28;20206;-75
2022/05/07 00:27:37;;;;;;;16.83;14.13;;;;;;;;;;5052803;28;20456;-76
2022/05/07 00:30:07;;;;;;;19.63;14.80;;;;;;;;;;5054089;28;20225;-76
2022/05/07 00:32:33;;;;;;;18.67;15.30;;;;;;;;;;5053004;28;20458;-75
2022/05/07 00:34:59;;;;;;;21.37;15.30;;;;;;;;;;5052351;28;20526;-75
2022/05/07 00:37:25;;;;;;;17.53;14.10;;;;;;;;;;5052715;28;20408;-76
2022/05/07 00:39:51;;;;;;;22.00;16.10;;;;;;;;;;5035165;28;20902;-76
2022/05/07 00:42:17;;;;;;;17.80;13.70;;;;;;;;;;5052795;28;20409;-76
2022/05/07 00:44:43;;;;;;;17.52;14.82;;;;;;;;;;5052420;28;20926;-76
2022/05/07 00:47:15;;;;;;;23.50;15.67;;;;;;;;;;5052526;28;20216;-76
2022/05/07 00:49:45;;;;;;;19.80;14.95;;;;;;;;;;5052579;28;20429;-75
2022/05/07 00:52:11;;;;;;;18.45;14.85;;;;;;;;;;5052693;28;20648;-76
2022/05/07 00:54:38;;;;;;;25.13;14.40;;;;;;;;;;5052254;28;20229;-76
2022/05/07 00:57:04;;;;;;;18.27;14.50;;;;;;;;;;5034852;28;20448;-76
2022/05/07 00:59:30;;;;;;;20.42;14.48;;;;;;;;;;5052388;28;21080;-76
2022/05/07 01:01:56;;;;;;;19.10;14.43;;;;;;;;;;5052524;28;20277;-75
2022/05/07 01:04:22;;;;;;;25.73;15.60;;;;;;;;;;5034532;28;20527;-75
2022/05/07 01:06:48;;;;;;;20.08;14.82;;;;;;;;;;5052475;28;20849;-76
2022/05/07 01:09:14;;;;;;;20.30;14.98;;;;;;;;;;5052324;28;20216;-76
2022/05/07 01:11:41;;;;;;;22.52;15.00;;;;;;;;;;5052291;28;20182;-76
2022/05/07 01:14:07;;;;;;;20.48;15.02;;;;;;;;;;5052032;28;20205;-77
2022/05/07 01:16:33;;;;;;;20.30;15.70;;;;;;;;;;5052724;28;20635;-77
2022/05/07 01:18:59;;;;;;;19.47;14.00;;;;;;;;;;5034559;28;20424;-75
2022/05/07 01:21:27;;;;;;;18.77;14.87;;;;;;;;;;5052354;28;20405;-76
2022/05/07 01:23:53;;;;;;;28.17;14.25;;;;;;;;;;5051727;28;20794;-76
2022/05/07 01:26:20;;;;;;;17.40;14.47;;;;;;;;;;5055146;28;20209;-75
2022/05/07 01:28:46;;;;;;;22.42;15.60;;;;;;;;;;5055971;28;20820;-76
2022/05/07 01:31:12;;;;;;;21.05;17.00;;;;;;;;;;5056022;28;20209;-76
2022/05/07 01:33:39;;;;;;;21.33;15.32;;;;;;;;;;5037713;28;20198;-75
2022/05/07 01:36:18;;;;;;;20.27;16.33;;;;;;;;;;5055732;28;20243;-75
2022/05/07 01:38:44;;;;;;;21.27;15.95;;;;;;;;;;5055892;28;20327;-76
2022/05/07 01:41:10;;;;;;;17.60;14.55;;;;;;;;;;5055921;28;20174;-76
2022/05/07 01:43:36;;;;;;;18.60;14.93;;;;;;;;;;5055167;28;20658;-76
2022/05/07 01:46:02;;;;;;;23.20;15.68;;;;;;;;;;5055416;28;20575;-77
2022/05/07 01:48:28;;;;;;;19.65;15.82;;;;;;;;;;5055530;28;20665;-75
2022/05/07 01:50:54;;;;;;;20.98;15.45;;;;;;;;;;5055592;28;20170;-76
2022/05/07 01:53:20;;;;;;;18.33;14.17;;;;;;;;;;5055157;28;20174;-75
2022/05/07 01:55:46;;;;;;;17.73;14.80;;;;;;;;;;5055507;28;20822;-76
2022/05/07 01:58:12;;;;;;;21.10;16.00;;;;;;;;;;5055217;28;20412;-76
2022/05/07 02:00:42;;;;;;;20.45;14.70;;;;;;;;;;5055399;28;20718;-76
2022/05/07 02:03:08;;;;;;;20.23;15.95;;;;;;;;;;5037036;28;20213;-75
2022/05/07 02:05:34;;;;;;;36.15;17.50;;;;;;;;;;5055474;28;20249;-76
2022/05/07 02:08:00;;;;;;;18.80;15.70;;;;;;;;;;5055468;28;20281;-76
2022/05/07 02:10:26;;;;;;;20.10;15.53;;;;;;;;;;5055260;28;20417;-75
2022/05/07 02:12:52;;;;;;;19.50;16.77;;;;;;;;;;5054783;28;20782;-76
2022/05/07 02:15:18;;;;;;;23.35;15.25;;;;;;;;;;5055197;28;20399;-76
2022/05/07 02:17:44;;;;;;;23.48;15.20;;;;;;;;;;5055136;28;20231;-76
2022/05/07 02:20:10;;;;;;;23.40;16.10;;;;;;;;;;5055042;28;20627;-76
2022/05/07 02:22:37;;;;;;;18.95;14.70;;;;;;;;;;5054908;28;20419;-77
2022/05/07 02:25:04;;;;;;;19.17;14.70;;;;;;;;;;5054429;28;20704;-75
2022/05/07 02:27:29;;;;;;;18.80;14.88;;;;;;;;;;5054725;28;20209;-77
2022/05/07 02:29:56;;;;;;;20.93;15.50;;;;;;;;;;5054897;28;20541;-75
2022/05/07 02:32:21;;;;;;;19.13;14.90;;;;;;;;;;5054794;28;20401;-75
2022/05/07 02:34:47;;;;;;;18.47;14.90;;;;;;;;;;5035669;28;20212;-76
2022/05/07 02:37:14;;;;;;;22.30;15.20;;;;;;;;;;5053142;28;20412;-75
2022/05/07 02:39:40;;;;;;;22.85;15.77;;;;;;;;;;5054341;28;20417;-75
2022/05/07 02:44:50;;;;;;;23.85;17.20;;;;;;;;;;5054453;28;20570;-76
2022/05/07 02:47:17;;;;;;;18.90;15.52;;;;;;;;;;5054368;28;20678;-77
2022/05/07 02:49:43;;;;;;;25.13;15.40;;;;;;;;;;5054408;28;20608;-75
2022/05/07 02:52:09;;;;;;;21.97;16.77;;;;;;;;;;5054530;28;20177;-77
2022/05/07 02:54:35;;;;;;;19.42;15.50;;;;;;;;;;5053660;28;20428;-77
2022/05/07 02:57:00;;;;;;;20.37;15.27;;;;;;;;;;5036396;28;20289;-76
2022/05/07 02:59:26;;;;;;;19.13;15.13;;;;;;;;;;5054136;28;20420;-76
2022/05/07 03:01:52;;;;;;;21.10;16.47;;;;;;;;;;5054204;28;20413;-77
2022/05/07 03:04:19;;;;;;;19.92;14.20;;;;;;;;;;5053710;28;20432;-77
2022/05/07 03:06:45;;;;;;;20.10;14.25;;;;;;;;;;5053797;28;20209;-75
2022/05/07 03:09:11;;;;;;;24.83;16.50;;;;;;;;;;5036060;28;20224;-77
2022/05/07 03:11:37;;;;;;;18.87;15.60;;;;;;;;;;5053886;28;20206;-77
2022/05/07 03:14:05;;;;;;;19.93;14.93;;;;;;;;;;5053514;28;20951;-77
2022/05/07 03:16:31;;;;;;;20.25;15.05;;;;;;;;;;5053824;28;20416;-76
2022/05/07 03:18:57;;;;;;;18.15;14.75;;;;;;;;;;5053802;28;20174;-75
2022/05/07 03:21:23;;;;;;;20.88;15.05;;;;;;;;;;5035956;28;20666;-76
2022/05/07 03:23:49;;;;;;;21.30;16.30;;;;;;;;;;5035604;28;20589;-76
2022/05/07 03:26:17;;;;;;;21.08;15.15;;;;;;;;;;5053872;28;20221;-76
2022/05/07 03:28:43;;;;;;;17.45;14.68;;;;;;;;;;5053636;28;20209;-77
2022/05/07 03:31:09;;;;;;;19.90;15.57;;;;;;;;;;5053799;28;20180;-77
2022/05/07 03:33:35;;;;;;;16.75;14.85;;;;;;;;;;5053240;28;20193;-76
2022/05/07 03:36:01;;;;;;;19.93;15.90;;;;;;;;;;5053689;28;20186;-75
2022/05/07 03:38:27;;;;;;;16.20;14.07;;;;;;;;;;5053439;28;20461;-76
2022/05/07 03:40:53;;;;;;;17.55;14.18;;;;;;;;;;5053401;28;20416;-78
2022/05/07 03:43:19;;;;;;;20.38;14.80;;;;;;;;;;5052845;28;20269;-77
2022/05/07 03:45:45;;;;;;;21.07;15.57;;;;;;;;;;5053315;28;20300;-77
2022/05/07 03:48:11;;;;;;;20.75;15.05;;;;;;;;;;5052624;28;20396;-77
2022/05/07 03:50:37;;;;;;;20.50;15.50;;;;;;;;;;5053256;28;20196;-75
2022/05/07 03:55:48;;;;;;;20.30;17.15;;;;;;;;;;5053319;28;20415;-76
2022/05/07 03:58:17;;;;;;;20.95;14.35;;;;;;;;;;5053041;28;20201;-77
2022/05/07 04:00:43;;;;;;;19.40;14.77;;;;;;;;;;5052784;28;20181;-76
2022/05/07 04:03:09;;;;;;;21.23;15.68;;;;;;;;;;5052419;28;20757;-76
2022/05/07 04:05:35;;;;;;;21.05;16.40;;;;;;;;;;5052841;28;20202;-76
2022/05/07 04:08:01;;;;;;;19.67;15.93;;;;;;;;;;5052867;28;20220;-77
2022/05/07 04:10:28;;;;;;;23.50;15.80;;;;;;;;;;5052801;28;20537;-78
2022/05/07 04:12:54;;;;;;;22.08;16.48;;;;;;;;;;5052373;28;20465;-76
2022/05/07 04:15:20;;;;;;;20.20;16.13;;;;;;;;;;5053036;28;20327;-76
2022/05/07 04:17:46;;;;;;;18.20;15.63;;;;;;;;;;5052748;28;20547;-76
2022/05/07 04:20:12;;;;;;;20.63;16.35;;;;;;;;;;5052759;28;20531;-76
2022/05/07 04:22:38;;;;;;;20.90;16.15;;;;;;;;;;5052900;28;20241;-75
2022/05/07 04:25:05;;;;;;;20.95;15.93;;;;;;;;;;5052349;28;20670;-77
2022/05/07 04:27:31;;;;;;;25.75;16.38;;;;;;;;;;5034994;28;20210;-75
2022/05/07 04:29:57;;;;;;;22.77;16.65;;;;;;;;;;5052629;28;20181;-75
2022/05/07 04:32:26;;;;;;;22.30;16.08;;;;;;;;;;5052485;28;20171;-76
2022/05/07 04:34:52;;;;;;;19.67;15.60;;;;;;;;;;5052287;28;20221;-75
2022/05/07 04:37:19;;;;;;;19.10;14.85;;;;;;;;;;5052632;28;20173;-76
2022/05/07 04:39:47;;;;;;;21.20;16.60;;;;;;;;;;5034880;28;20323;-77
2022/05/07 04:42:13;;;;;;;23.27;15.05;;;;;;;;;;5052626;28;20166;-76
2022/05/07 04:44:39;;;;;;;23.70;16.42;;;;;;;;;;5052070;28;20228;-75
2022/05/07 04:47:05;;;;;;;24.53;15.17;;;;;;;;;;5052282;28;20636;-76
2022/05/07 04:49:31;;;;;;;20.75;15.68;;;;;;;;;;5052108;28;20491;-76
2022/05/07 04:51:57;;;;;;;19.33;14.27;;;;;;;;;;5052460;28;20174;-75
2022/05/07 04:54:24;;;;;;;20.85;16.42;;;;;;;;;;5051933;28;20198;-76
2022/05/07 04:56:50;;;;;;;23.35;16.48;;;;;;;;;;5052147;28;20273;-77
2022/05/07 04:59:17;;;;;;;21.17;17.08;;;;;;;;;;5053352;28;20261;-76
2022/05/07 05:01:43;;;;;;;20.48;14.68;;;;;;;;;;5055825;28;20177;-76
2022/05/07 05:04:09;;;;;;;21.52;15.40;;;;;;;;;;5055359;28;20206;-76
2022/05/07 05:06:36;;;;;;;20.45;15.75;;;;;;;;;;5055851;28;20558;-76
2022/05/07 05:09:02;;;;;;;21.02;15.73;;;;;;;;;;5038373;28;20196;-76
2022/05/07 05:11:28;;;;;;;21.40;16.47;;;;;;;;;;5037671;28;20547;-75
2022/05/07 05:13:54;;;;;;;20.70;15.90;;;;;;;;;;5037888;28;20429;-76
2022/05/07 05:16:20;;;;;;;20.73;15.52;;;;;;;;;;5056077;28;20448;-75
2022/05/07 05:18:46;;;;;;;23.88;16.15;;;;;;;;;;5056002;28;20635;-75
2022/05/07 05:21:12;;;;;;;24.20;15.70;;;;;;;;;;5055829;28;20204;-75
2022/05/07 05:23:38;;;;;;;25.73;16.90;;;;;;;;;;5037778;28;20824;-75
2022/05/07 05:26:04;;;;;;;19.50;14.57;;;;;;;;;;5056044;28;20502;-76
2022/05/07 05:28:30;;;;;;;22.57;16.17;;;;;;;;;;5055831;28;20448;-77
2022/05/07 05:30:56;;;;;;;20.20;15.60;;;;;;;;;;5038009;28;20861;-77
2022/05/07 05:33:22;;;;;;;26.20;16.43;;;;;;;;;;5055296;28;20430;-75
2022/05/07 05:35:49;;;;;;;23.00;16.85;;;;;;;;;;5055491;28;20415;-76
2022/05/07 05:38:15;;;;;;;19.03;15.23;;;;;;;;;;5055569;28;20192;-76
2022/05/07 05:40:42;;;;;;;20.20;14.93;;;;;;;;;;5055592;28;20408;-76
2022/05/07 05:43:09;;;;;;;20.30;15.00;;;;;;;;;;5055021;28;20412;-75
2022/05/07 05:45:35;;;;;;;22.13;14.90;;;;;;;;;;5055269;28;20440;-75
2022/05/07 05:48:01;;;;;;;24.10;15.50;;;;;;;;;;5055318;28;20209;-75
2022/05/07 05:50:29;;;;;;;18.03;14.80;;;;;;;;;;5055342;28;20439;-75
2022/05/07 05:52:55;;;;;;;21.77;15.87;;;;;;;;;;5055208;28;20427;-76
2022/05/07 05:55:21;;;;;;;19.90;14.73;;;;;;;;;;5055504;28;20463;-77
2022/05/07 05:57:48;;;;;;;19.80;16.57;;;;;;;;;;5055239;28;20412;-76
2022/05/07 06:00:15;;;;;;;21.17;14.73;;;;;;;;;;5055144;28;20405;-76
2022/05/07 06:02:44;;;;;;;20.50;15.20;;;;;;;;;;5055396;28;20530;-77
2022/05/07 06:05:10;;;;;;;20.57;14.90;;;;;;;;;;5054998;28;20468;-75
2022/05/07 06:07:36;;;;;;;17.67;14.80;;;;;;;;;;5055164;28;20466;-76
2022/05/07 06:10:02;;;;;;;19.10;14.93;;;;;;;;;;5054699;28;20404;-75
2022/05/07 06:12:28;;;;;;;17.20;14.17;;;;;;;;;;5054478;28;20400;-76
2022/05/07 06:14:54;;;;;;;18.17;14.00;;;;;;;;;;5054816;28;20431;-76
2022/05/07 06:17:20;;;;;;;19.60;13.30;;;;;;;;;;5055334;28;20763;-75
2022/05/07 06:19:46;;;;;;;20.00;14.57;;;;;;;;;;5055103;28;20765;-76
2022/05/07 06:22:12;;;;;;;18.83;13.60;;;;;;;;;;5054953;28;20449;-75
2022/05/07 06:27:33;;;;;;;21.73;13.27;;;;;;;;;;5054689;28;20523;-75
2022/05/07 06:30:03;;;;;;;17.27;14.20;;;;;;;;;;5054308;28;20853;-77
2022/05/07 06:32:33;;;;;;;18.87;14.93;;;;;;;;;;5054251;28;20387;-76
2022/05/07 06:34:59;;;;;;;19.90;14.57;;;;;;;;;;5054039;28;20948;-76
2022/05/07 06:37:25;;;;;;;21.50;14.50;;;;;;;;;;5054318;28;20392;-75
2022/05/07 06:39:51;;;;;;;17.67;13.30;;;;;;;;;;5054818;28;20424;-75
2022/05/07 06:42:17;;;;;;;18.47;13.10;;;;;;;;;;5054518;28;20507;-76
2022/05/07 06:44:43;;;;;;;18.00;14.43;;;;;;;;;;5054144;28;20403;-76
2022/05/07 06:47:09;;;;;;;24.77;13.70;;;;;;;;;;5054110;28;20482;-75
2022/05/07 06:49:37;;;;;;;19.97;13.67;;;;;;;;;;5054439;28;20412;-76
2022/05/07 06:52:03;;;;;;;19.20;12.00;;;;;;;;;;5054395;28;20386;-77
2022/05/07 06:54:29;;;;;;;18.33;12.23;;;;;;;;;;5053811;28;20809;-76
2022/05/07 06:56:55;;;;;;;19.20;13.50;;;;;;;;;;5054347;28;20396;-76
2022/05/07 06:59:21;;;;;;;17.60;12.70;;;;;;;;;;5054159;28;20395;-77
2022/05/07 07:01:47;;;;;;;16.87;11.50;;;;;;;;;;5054043;28;20425;-76
2022/05/07 07:04:13;;;;;;;17.90;12.43;;;;;;;;;;5053499;28;20969;-75
2022/05/07 07:06:39;;;;;;;14.90;11.07;;;;;;;;;;5035694;28;20475;-77
2022/05/07 07:09:07;;;;;;;15.63;12.17;;;;;;;;;;5053894;28;20383;-76
2022/05/07 07:11:34;;;;;;;16.87;12.40;;;;;;;;;;5054227;28;20418;-76
2022/05/07 07:14:02;;;;;;;16.90;12.20;;;;;;;;;;5053425;28;20406;-75
2022/05/07 07:16:28;;;;;;;16.90;11.33;;;;;;;;;;5036386;28;20413;-75
2022/05/07 07:18:54;;;;;;;17.53;12.77;;;;;;;;;;5053745;28;20413;-74
2022/05/07 07:21:20;;;;;;;18.80;12.30;;;;;;;;;;5053978;28;20389;-76
2022/05/07 07:23:47;;;;;;;14.40;11.80;;;;;;;;;;5034552;28;20444;-75
2022/05/07 07:26:13;;;;;;;15.57;12.20;;;;;;;;;;5053707;28;20434;-76
2022/05/07 07:28:40;;;;;;;14.73;11.10;;;;;;;;;;5053390;28;20415;-76
2022/05/07 07:31:08;;;;;;;14.20;11.33;;;;;;;;;;5053899;28;20416;-76
2022/05/07 07:33:34;;;;;;;16.70;11.67;;;;;;;;;;5053183;28;20416;-77
2022/05/07 07:36:00;;;;;;;13.60;10.17;;;;;;;;;;5053340;28;20435;-76
2022/05/07 07:38:26;;;;;;;15.07;11.20;;;;;;;;;;5053581;28;20462;-75
2022/05/07 07:40:53;;;;;;;19.17;10.80;;;;;;;;;;5053731;28;20533;-76
2022/05/07 07:43:20;;;;;;;21.03;12.43;;;;;;;;;;5053251;28;20788;-75
2022/05/07 07:48:31;;;;;;;14.47;11.00;;;;;;;;;;5053443;28;20406;-75
2022/05/07 07:50:58;;;;;;;16.27;11.87;;;;;;;;;;5035340;28;20966;-77
2022/05/07 07:53:24;;;;;;;14.80;10.90;;;;;;;;;;5053040;28;20928;-76
2022/05/07 07:55:50;;;;;;;14.90;11.10;;;;;;;;;;5053343;28;20494;-75
2022/05/07 07:58:17;;;;;;;19.47;11.80;;;;;;;;;;5053344;28;20945;-76
2022/05/07 08:00:44;;;;;;;17.60;10.80;;;;;;;;;;5053150;28;20420;-76
2022/05/07 08:03:15;;;;;;;12.67;9.73;;;;;;;;;;5052829;28;20412;-77
2022/05/07 08:05:42;;;;;;;13.67;9.90;;;;;;;;;;5035239;28;20430;-76
2022/05/07 08:13:39;;;;;;;16.37;9.40;;;;;;;;;;5052806;28;20432;-76
2022/05/07 08:16:07;;;;;;;18.77;9.40;;;;;;;;;;5052880;28;20405;-75
2022/05/07 08:18:34;;;;;;;12.23;8.73;;;;;;;;;;5053038;28;20482;-76
2022/05/07 08:21:01;;;;;;;14.63;9.93;;;;;;;;;;5018752;28;20909;-78
2022/05/07 08:23:27;;;;;;;16.53;9.23;;;;;;;;;;5052793;28;20588;-75
2022/05/07 08:25:53;;;;;;;18.83;10.17;;;;;;;;;;5034938;28;20975;-76
2022/05/07 08:28:19;;;;;;;14.90;10.40;;;;;;;;;;5053091;28;20408;-75
2022/05/07 08:30:46;;;;;;;14.80;9.63;;;;;;;;;;5052830;28;20428;-76
2022/05/07 08:33:12;;;;;;;14.17;9.57;;;;;;;;;;5052299;28;20416;-75
2022/05/07 08:35:38;;;;;;;12.50;9.07;;;;;;;;;;5038472;28;20423;-76
2022/05/07 08:38:04;;;;;;;12.13;8.00;;;;;;;;;;5056883;28;20411;-76
2022/05/07 08:40:30;;;;;;;11.63;8.50;;;;;;;;;;5056842;28;20407;-76
2022/05/07 08:42:56;;;;;;;12.27;8.00;;;;;;;;;;5056415;28;20435;-76
2022/05/07 08:45:23;;;;;;;12.10;8.67;;;;;;;;;;5056747;28;20424;-75
2022/05/07 08:47:53;;;;;;;15.10;8.77;;;;;;;;;;5056748;28;20471;-75
2022/05/07 08:50:20;;;;;;;12.50;8.40;;;;;;;;;;5056757;28;20744;-76
2022/05/07 08:52:49;;;;;;;12.90;7.37;;;;;;;;;;5056687;28;20419;-76
2022/05/07 08:55:18;;;;;;;11.67;8.40;;;;;;;;;;5056084;28;20445;-77
2022/05/07 08:57:45;;;;;;;16.30;6.47;;;;;;;;;;5056453;28;20829;-76
2022/05/07 09:00:12;;;;;;;12.13;7.27;;;;;;;;;;5056380;28;20404;-76
2022/05/07 09:02:41;;;;;;;17.63;7.23;;;;;;;;;;5056649;28;20404;-76
2022/05/07 09:05:08;;;;;;;12.50;6.10;;;;;;;;;;5038110;28;20437;-77
2022/05/07 09:07:34;;;;;;;10.97;6.33;;;;;;;;;;5056234;28;20470;-75
2022/05/07 09:10:00;;;;;;;15.07;7.87;;;;;;;;;;5056658;28;20755;-77
2022/05/07 09:12:29;;;;;;;11.97;6.70;;;;;;;;;;5056078;28;20404;-73
2022/05/07 09:15:15;;;;;;;10.47;6.60;;;;;;;;;;5056094;28;20429;-78
2022/05/07 09:17:46;;;;;;;14.57;9.17;;;;;;;;;;5054480;28;20444;-76
2022/05/07 09:20:15;;;;;;;12.53;7.37;;;;;;;;;;5037535;28;20947;-78
2022/05/07 09:22:55;;;;;;;17.53;7.90;;;;;;;;;;5056152;28;20922;-78
2022/05/07 09:25:24;;;;;;;15.83;9.43;;;;;;;;;;5056024;28;20446;-76
2022/05/07 09:27:51;;;;;;;17.40;8.90;;;;;;;;;;5056283;28;20460;-75
2022/05/07 09:30:27;;;;;;;11.57;8.17;;;;;;;;;;5056110;28;20420;-78
2022/05/07 09:32:54;;;;;;;13.73;8.90;;;;;;;;;;5055704;28;20397;-78
2022/05/07 09:38:06;;;;;;;13.17;8.77;;;;;;;;;;5056420;28;20472;-73
2022/05/07 09:40:38;;;;;;;16.03;10.30;;;;;;;;;;5055683;28;20404;-74
2022/05/07 09:43:04;;;;;;;15.40;9.77;;;;;;;;;;5055417;28;20417;-74
2022/05/07 09:45:30;;;;;;;12.77;9.87;;;;;;;;;;5054348;28;20439;-74
2022/05/07 09:47:58;;;;;;;15.43;11.00;;;;;;;;;;5055356;28;20463;-75
2022/05/07 09:50:43;;;;;;;13.10;10.30;;;;;;;;;;5038122;28;20416;-74
2022/05/07 09:58:44;;;;;;;19.90;12.83;;;;;;;;;;5055741;28;20907;-74
2022/05/07 10:01:22;;;;;;;14.23;10.20;;;;;;;;;;5055361;28;20499;-75
2022/05/07 10:03:55;;;;;;;16.30;11.00;;;;;;;;;;5054752;28;20792;-75
2022/05/07 10:06:24;;;;;;;17.17;13.70;;;;;;;;;;5055299;28;20857;-75
2022/05/07 10:09:06;;;;;;;17.07;10.90;;;;;;;;;;5054866;28;20412;-74
2022/05/07 10:11:33;;;;;;;17.50;14.17;;;;;;;;;;5054917;28;20977;-75
2022/05/07 10:13:59;;;;;;;22.70;15.57;;;;;;;;;;5054614;28;20436;-74
2022/05/07 10:16:29;;;;;;;17.00;11.50;;;;;;;;;;5055044;28;20408;-74
2022/05/07 10:18:55;;;;;;;13.10;9.83;;;;;;;;;;5055159;28;20878;-74
2022/05/07 10:21:21;;;;;;;12.90;11.30;;;;;;;;;;5054945;28;20940;-75
2022/05/07 10:23:49;;;;;;;16.83;14.23;;;;;;;;;;5036340;28;20445;-74
2022/05/07 10:26:15;;;;;;;19.83;12.83;;;;;;;;;;5037517;28;20522;-75
2022/05/07 10:28:42;;;;;;;13.27;11.20;;;;;;;;;;5036807;28;20443;-75
2022/05/07 10:31:18;;;;;;;20.93;17.20;;;;;;;;;;5054824;28;20437;-75
2022/05/07 10:33:44;;;;;;;21.23;17.50;;;;;;;;;;5036246;28;20957;-75
2022/05/07 10:36:11;;;;;;;21.40;17.40;;;;;;;;;;5054727;28;20472;-75
2022/05/07 10:38:42;;;;;;;14.97;13.47;;;;;;;;;;5054503;28;20497;-74
2022/05/07 10:41:19;;;;;;;14.07;12.30;;;;;;;;;;5054697;28;20420;-75
2022/05/07 10:44:05;;;;;;;15.50;10.60;;;;;;;;;;5054338;28;20428;-75
2022/05/07 10:46:44;;;;;;;16.93;14.27;;;;;;;;;;5054537;28;20650;-75
2022/05/07 10:49:10;;;;;;;13.50;12.20;;;;;;;;;;5054616;28;20827;-75
2022/05/07 10:51:50;;;;;;;14.43;12.97;;;;;;;;;;5036548;28;20471;-75
2022/05/07 10:54:24;;;;;;;13.00;11.30;;;;;;;;;;5054261;28;20455;-76
2022/05/07 10:56:51;;;;;;;14.67;13.00;;;;;;;;;;5054218;28;20492;-75
2022/05/07 10:59:17;;;;;;;19.63;13.40;;;;;;;;;;5054227;28;20424;-74
2022/05/07 11:01:43;;;;;;;13.33;11.33;;;;;;;;;;5054169;28;20469;-74
2022/05/07 11:04:12;;;;;;;11.87;10.30;;;;;;;;;;5053665;28;20799;-74
2022/05/07 11:06:44;;;;;;;13.70;11.80;;;;;;;;;;5053988;28;20550;-74
2022/05/07 11:09:23;;;;;;;18.13;10.43;;;;;;;;;;5054051;28;20472;-74
2022/05/07 11:11:52;;;;;;;12.90;11.30;;;;;;;;;;5054049;28;20419;-74
2022/05/07 11:14:25;;;;;;;16.30;11.40;;;;;;;;;;5053656;28;20954;-74
2022/05/07 11:16:52;;;;;;;15.60;12.37;;;;;;;;;;5053969;28;20445;-74
2022/05/07 11:19:36;;;;;;;13.17;11.90;;;;;;;;;;5053884;28;20405;-74
2022/05/07 11:22:04;;;;;;;14.63;10.87;;;;;;;;;;5053958;28;20404;-74
2022/05/07 11:24:31;;;;;;;14.50;11.33;;;;;;;;;;5053160;28;20468;-74
2022/05/07 11:26:59;;;;;;;14.30;11.33;;;;;;;;;;5053728;28;20635;-74
2022/05/07 11:29:25;;;;;;;16.63;10.67;;;;;;;;;;5053710;28;20434;-74
2022/05/07 11:31:59;;;;;;;13.67;12.10;;;;;;;;;;5053531;28;20500;-74
2022/05/07 11:34:29;;;;;;;13.00;11.07;;;;;;;;;;5053177;28;20428;-75
2022/05/07 11:36:55;;;;;;;15.93;13.87;;;;;;;;;;5053644;28;20410;-74
2022/05/07 11:39:21;;;;;;;14.00;12.53;;;;;;;;;;5035687;28;20533;-74
2022/05/07 11:41:53;;;;;;;16.50;11.90;;;;;;;;;;5035670;28;20462;-74
2022/05/07 11:47:23;;;;;;;16.27;14.20;;;;;;;;;;5053558;28;20456;-75
2022/05/07 11:50:05;;;;;;;13.37;12.07;;;;;;;;;;5053347;28;20496;-74
2022/05/07 11:52:31;;;;;;;16.17;11.80;;;;;;;;;;5053185;28;20407;-75
2022/05/07 11:55:03;;;;;;;15.37;11.37;;;;;;;;;;5052801;28;20769;-74
2022/05/07 11:57:29;;;;;;;15.63;11.83;;;;;;;;;;5053143;28;20959;-74
2022/05/07 11:59:56;;;;;;;17.00;12.90;;;;;;;;;;5053103;28;20769;-74
2022/05/07 12:02:21;;;;;;;13.70;11.73;;;;;;;;;;5053085;28;20419;-74
2022/05/07 12:05:08;;;;;;;17.33;13.83;;;;;;;;;;5052563;28;20432;-74
2022/05/07 12:07:40;;;;;;;18.20;14.10;;;;;;;;;;5052879;28;21024;-75
2022/05/07 12:10:06;;;;;;;15.80;13.93;;;;;;;;;;5052306;28;20417;-74
2022/05/07 12:12:32;;;;;;;17.17;14.30;;;;;;;;;;5052813;28;20419;-75
2022/05/07 12:14:59;;;;;;;15.43;13.10;;;;;;;;;;5052359;28;21015;-75
2022/05/07 12:20:10;;;;;;;14.17;11.30;;;;;;;;;;5052871;28;20409;-75
2022/05/07 12:30:50;;;;;;;16.83;14.80;;;;;;;;;;5032909;28;20416;-74
2022/05/07 12:33:16;;;;;;;16.37;14.67;;;;;;;;;;5032245;28;20423;-74
2022/05/07 12:35:42;;;;;;;17.00;13.60;;;;;;;;;;5032587;28;20408;-74
2022/05/07 12:38:08;;;;;;;16.10;14.57;;;;;;;;;;5032876;28;20423;-74
2022/05/07 12:40:34;;;;;;;17.17;14.53;;;;;;;;;;5032719;28;20410;-73
2022/05/07 12:43:00;;;;;;;18.80;14.00;;;;;;;;;;5032193;28;20471;-74
2022/05/07 12:45:26;;;;;;;15.60;14.00;;;;;;;;;;5014909;28;20918;-73
2022/05/07 12:47:53;;;;;;;16.07;14.17;;;;;;;;;;5032386;28;20465;-74
2022/05/07 12:50:19;;;;;;;14.83;13.33;;;;;;;;;;5032165;28;20425;-76
2022/05/07 12:52:45;;;;;;;14.93;13.47;;;;;;;;;;5032307;28;20481;-74
2022/05/07 12:55:11;;;;;;;15.13;13.33;;;;;;;;;;5031276;28;21009;-74
2022/05/07 12:57:38;;;;;;;15.57;13.97;;;;;;;;;;5031327;28;20421;-74
2022/05/07 13:00:04;;;;;;;13.40;12.00;;;;;;;;;;5032559;28;20415;-74
2022/05/07 13:02:31;;;;;;;15.87;14.23;;;;;;;;;;5015049;28;20411;-73
2022/05/07 13:04:57;;;;;;;15.60;13.30;;;;;;;;;;5030686;28;21020;-74
2022/05/07 13:07:23;;;;;;;15.43;13.83;;;;;;;;;;5014593;28;20559;-74
2022/05/07 13:09:49;;;;;;;19.37;13.37;;;;;;;;;;5032299;28;20412;-74
2022/05/07 13:12:16;;;;;;;16.73;13.43;;;;;;;;;;5032295;28;20413;-74
2022/05/07 13:14:42;;;;;;;17.80;14.47;;;;;;;;;;5031976;28;20436;-74
2022/05/07 13:17:08;;;;;;;14.83;12.70;;;;;;;;;;5032216;28;20401;-74
2022/05/07 13:19:34;;;;;;;17.30;12.80;;;;;;;;;;5014286;28;20417;-74
2022/05/07 13:22:00;;;;;;;16.33;12.77;;;;;;;;;;5035961;28;20588;-74
2022/05/07 13:24:26;;;;;;;15.00;12.23;;;;;;;;;;5035402;28;20529;-74
2022/05/07 13:26:52;;;;;;;18.13;13.40;;;;;;;;;;5036118;28;20488;-74
2022/05/07 13:29:18;;;;;;;14.80;12.83;;;;;;;;;;5043750;28;20478;-75
2022/05/07 13:31:44;;;;;;;16.07;13.50;;;;;;;;;;5037947;28;20425;-74
2022/05/07 13:34:10;;;;;;;15.23;12.97;;;;;;;;;;5055369;28;20485;-74
2022/05/07 13:36:36;;;;;;;17.17;13.50;;;;;;;;;;5037927;28;20420;-74
2022/05/07 13:39:02;;;;;;;16.37;13.80;;;;;;;;;;5055578;28;20785;-74
2022/05/07 13:41:29;;;;;;;13.00;11.60;;;;;;;;;;5055333;28;20440;-75
2022/05/07 13:43:58;;;;;;;14.47;12.03;;;;;;;;;;5055161;28;20431;-74
2022/05/07 13:46:24;;;;;;;18.07;13.30;;;;;;;;;;5055402;28;20460;-74
2022/05/07 13:48:51;;;;;;;15.27;12.20;;;;;;;;;;5055296;28;20416;-74
2022/05/07 13:51:18;;;;;;;12.73;11.53;;;;;;;;;;5055526;28;20414;-74
2022/05/07 13:53:44;;;;;;;15.70;12.03;;;;;;;;;;5054748;28;20445;-74
2022/05/07 13:56:10;;;;;;;18.80;13.57;;;;;;;;;;5020892;28;20421;-74
2022/05/07 13:58:41;;;;;;;14.40;12.80;;;;;;;;;;5055115;28;20416;-74
2022/05/07 14:01:08;;;;;;;15.57;12.63;;;;;;;;;;5054961;28;20421;-73
2022/05/07 14:03:33;;;;;;;17.90;12.90;;;;;;;;;;5054399;28;20425;-74
2022/05/07 14:05:59;;;;;;;14.50;11.10;;;;;;;;;;5054813;28;20610;-74
2022/05/07 14:08:27;;;;;;;12.50;10.73;;;;;;;;;;5054704;28;20408;-74
2022/05/07 14:10:53;;;;;;;14.83;12.53;;;;;;;;;;5054942;28;20783;-74
2022/05/07 14:13:19;;;;;;;15.97;13.67;;;;;;;;;;5036320;28;20408;-74
2022/05/07 14:15:45;;;;;;;21.30;14.07;;;;;;;;;;5054538;28;20409;-73
2022/05/07 14:18:11;;;;;;;17.87;13.77;;;;;;;;;;5036743;28;20416;-73
2022/05/07 14:20:37;;;;;;;16.17;11.70;;;;;;;;;;5054630;28;20546;-74
2022/05/07 14:23:03;;;;;;;12.03;10.80;;;;;;;;;;5036463;28;20425;-74
2022/05/07 14:25:29;;;;;;;12.63;11.33;;;;;;;;;;5036508;28;20428;-73
2022/05/07 14:27:55;;;;;;;14.60;10.40;;;;;;;;;;5054268;28;21023;-74
2022/05/07 14:30:21;;;;;;;13.17;8.77;;;;;;;;;;5054332;28;20428;-74
2022/05/07 14:32:47;;;;;;;10.50;9.00;;;;;;;;;;5053962;28;20468;-74
2022/05/07 14:35:14;;;;;;;9.87;8.60;;;;;;;;;;5054022;28;20428;-73
2022/05/07 14:37:40;;;;;;;10.87;8.30;;;;;;;;;;5054405;28;20408;-74
2022/05/07 14:42:53;;;;;;;11.87;8.67;;;;;;;;;;5054628;28;20951;-73
2022/05/07 14:45:19;;;;;;;13.67;8.40;;;;;;;;;;5036744;28;20467;-73
2022/05/07 14:47:45;;;;;;;9.50;7.97;;;;;;;;;;5053993;28;20496;-74
2022/05/07 14:50:14;;;;;;;13.47;8.63;;;;;;;;;;5053874;28;20447;-74
2022/05/07 14:52:40;;;;;;;11.40;7.50;;;;;;;;;;5054105;28;20420;-73
2022/05/07 14:55:06;;;;;;;11.13;6.73;;;;;;;;;;5053696;28;20943;-73
2022/05/07 14:57:32;;;;;;;8.07;6.60;;;;;;;;;;5052508;28;20419;-73
2022/05/07 14:59:58;;;;;;;7.93;5.80;;;;;;;;;;5053829;28;20903;-73
2022/05/07 15:02:24;;;;;;;8.93;6.03;;;;;;;;;;5053898;28;20452;-72